createdAt,value
2023-04-21T00:00:47.749Z,92.90
2023-04-21T00:03:17.793Z,93.70
2023-04-21T00:05:46.055Z,93.50
2023-04-21T00:08:14.051Z,94.10
2023-04-21T00:10:42.092Z,94.20
2023-04-21T00:13:10.328Z,94.50
2023-04-21T00:15:38.291Z,94.70
2023-04-21T00:18:06.372Z,95.00
2023-04-21T00:20:35.637Z,94.90
2023-04-21T00:23:03.875Z,94.90
2023-04-21T00:25:32.042Z,95.10
2023-04-21T00:27:59.892Z,95.10
2023-04-21T00:30:27.736Z,95.10
2023-04-21T00:32:55.922Z,95.10
2023-04-21T00:35:23.822Z,95.40
2023-04-21T00:37:53.074Z,95.30
2023-04-21T00:40:21.003Z,95.60
2023-04-21T00:42:48.899Z,95.70
2023-04-21T00:45:16.786Z,95.80
2023-04-21T00:47:44.738Z,95.80
2023-04-21T00:50:13.541Z,96.10
2023-04-21T00:52:41.870Z,96.20
2023-04-21T00:55:11.861Z,96.30
2023-04-21T00:57:39.832Z,96.50
2023-04-21T01:00:10.348Z,96.60
2023-04-21T01:02:40.032Z,96.70
2023-04-21T01:05:10.003Z,96.70
2023-04-21T01:07:38.557Z,96.60
2023-04-21T01:10:07.557Z,96.70
2023-04-21T01:12:43.528Z,96.60
2023-04-21T01:15:12.486Z,96.70
2023-04-21T01:17:40.490Z,96.90
2023-04-21T01:20:11.479Z,96.60
2023-04-21T01:22:42.014Z,96.70
2023-04-21T01:25:10.588Z,96.90
2023-04-21T01:27:38.507Z,96.90
2023-04-21T01:30:10.005Z,96.80
2023-04-21T01:32:38.077Z,96.80
2023-04-21T01:35:07.110Z,96.80
2023-04-21T01:37:35.557Z,96.80
2023-04-21T01:40:09.129Z,97.10
2023-04-21T01:42:39.168Z,97.10
2023-04-21T01:45:08.367Z,97.10
2023-04-21T01:47:36.347Z,97.10
2023-04-21T01:50:04.712Z,97.10
2023-04-21T01:52:32.588Z,97.40
2023-04-21T01:55:01.755Z,97.50
2023-04-21T01:57:31.114Z,97.60
2023-04-21T01:59:58.975Z,97.70
2023-04-21T02:02:27.076Z,97.70
2023-04-21T02:04:55.153Z,97.60
2023-04-21T02:07:23.011Z,97.50
2023-04-21T02:09:50.852Z,97.50
2023-04-21T02:12:18.721Z,97.40
2023-04-21T02:14:49.260Z,97.70
2023-04-21T02:17:17.788Z,97.50
2023-04-21T02:19:45.833Z,97.50
2023-04-21T02:22:13.698Z,97.80
2023-04-21T02:24:41.744Z,97.90
2023-04-21T02:27:09.608Z,98.10
2023-04-21T02:29:37.461Z,98.10
2023-04-21T02:32:22.215Z,98.10
2023-04-21T02:34:53.257Z,98.20
2023-04-21T02:37:21.438Z,98.00
2023-04-21T02:39:49.290Z,97.90
2023-04-21T02:42:17.217Z,97.90
2023-04-21T02:44:45.047Z,97.80
2023-04-21T02:47:16.283Z,97.80
2023-04-21T02:49:44.737Z,97.70
2023-04-21T02:52:12.563Z,97.60
2023-04-21T02:54:40.417Z,98.00
2023-04-21T02:57:08.298Z,98.10
2023-04-21T02:59:36.200Z,98.00
2023-04-21T03:02:04.388Z,98.00
2023-04-21T03:04:34.153Z,98.30
2023-04-21T03:07:02.230Z,98.60
2023-04-21T03:09:30.096Z,98.60
2023-04-21T03:11:57.930Z,98.50
2023-04-21T03:14:25.762Z,98.30
2023-04-21T03:16:53.745Z,98.70
2023-04-21T03:19:21.864Z,98.60
2023-04-21T03:21:51.238Z,98.70
2023-04-21T03:24:19.366Z,98.70
2023-04-21T03:26:47.285Z,98.50
2023-04-21T03:29:15.205Z,98.10
2023-04-21T03:31:43.088Z,98.20
2023-04-21T03:34:11.158Z,98.10
2023-04-21T03:36:39.024Z,98.10
2023-04-21T03:39:19.281Z,98.10
2023-04-21T03:41:48.283Z,98.00
2023-04-21T03:44:16.244Z,98.10
2023-04-21T03:46:44.203Z,98.10
2023-04-21T03:49:12.101Z,98.10
2023-04-21T03:51:39.986Z,98.10
2023-04-21T03:54:09.413Z,98.20
2023-04-21T03:56:37.296Z,98.30
2023-04-21T03:59:05.782Z,98.40
2023-04-21T04:01:34.637Z,98.80
2023-04-21T04:04:02.871Z,98.80
2023-04-21T04:06:32.128Z,98.70
2023-04-21T04:09:02.470Z,98.70
2023-04-21T04:11:31.986Z,98.80
2023-04-21T04:13:59.952Z,98.60
2023-04-21T04:16:29.024Z,98.80
2023-04-21T04:18:57.347Z,98.80
2023-04-21T04:21:25.262Z,98.60
2023-04-21T04:23:53.278Z,98.70
2023-04-21T04:26:22.660Z,98.80
2023-04-21T04:28:52.023Z,98.90
2023-04-21T04:31:20.185Z,98.70
2023-04-21T04:33:48.087Z,98.90
2023-04-21T04:36:15.969Z,98.60
2023-04-21T04:38:43.890Z,98.50
2023-04-21T04:41:12.780Z,98.80
2023-04-21T04:43:41.436Z,98.50
2023-04-21T04:46:12.989Z,98.80
2023-04-21T04:48:41.370Z,98.50
2023-04-21T04:51:09.968Z,98.60
2023-04-21T04:53:37.841Z,98.50
2023-04-21T04:56:06.118Z,98.40
2023-04-21T04:58:33.990Z,98.30
2023-04-21T05:01:13.983Z,98.40
2023-04-21T05:03:41.972Z,98.10
2023-04-21T05:06:10.204Z,98.10
2023-04-21T05:08:38.113Z,98.30
2023-04-21T05:11:06.778Z,98.20
2023-04-21T05:13:34.652Z,98.40
2023-04-21T05:16:02.962Z,98.30
2023-04-21T05:18:32.258Z,98.60
2023-04-21T05:21:00.150Z,98.70
2023-04-21T05:23:28.488Z,98.60
2023-04-21T05:25:56.353Z,98.80
2023-04-21T05:28:24.213Z,98.60
2023-04-21T05:30:52.143Z,98.60
2023-04-21T05:33:20.352Z,98.50
2023-04-21T05:35:49.597Z,98.70
2023-04-21T05:38:17.488Z,99.00
2023-04-21T05:40:45.392Z,98.50
2023-04-21T05:43:13.395Z,98.30
2023-04-21T05:45:41.846Z,98.30
2023-04-21T05:48:11.183Z,98.50
2023-04-21T05:50:40.843Z,98.10
2023-04-21T05:53:10.206Z,97.20
2023-04-21T05:55:38.854Z,96.30
2023-04-21T05:58:06.758Z,95.70
2023-04-21T06:00:34.827Z,95.00
2023-04-21T06:03:03.156Z,95.10
2023-04-21T06:05:31.288Z,94.70
2023-04-21T06:07:59.459Z,94.00
2023-04-21T06:10:29.049Z,93.10
2023-04-21T06:12:56.955Z,92.60
2023-04-21T06:15:24.866Z,92.60
2023-04-21T06:17:55.065Z,92.40
2023-04-21T06:20:23.132Z,91.40
2023-04-21T06:22:51.009Z,91.10
2023-04-21T06:25:19.111Z,91.00
2023-04-21T06:27:48.372Z,89.70
2023-04-21T06:30:17.173Z,90.30
2023-04-21T06:32:46.130Z,86.30
2023-04-21T06:35:15.032Z,86.80
2023-04-21T06:37:43.177Z,88.80
2023-04-21T06:40:15.899Z,87.90
2023-04-21T06:42:43.882Z,85.30
2023-04-21T06:45:13.398Z,87.10
2023-04-21T06:47:41.290Z,85.50
2023-04-21T06:50:10.148Z,86.40
2023-04-21T06:52:38.043Z,87.30
2023-04-21T06:55:07.041Z,84.40
2023-04-21T06:57:34.944Z,84.50
2023-04-21T07:00:02.920Z,84.80
2023-04-21T07:02:32.251Z,83.20
2023-04-21T07:05:00.276Z,81.70
2023-04-21T07:07:28.200Z,79.10
2023-04-21T07:09:56.053Z,77.30
2023-04-21T07:12:24.028Z,71.90
2023-04-21T07:14:51.899Z,67.80
2023-04-21T07:17:19.762Z,69.60
2023-04-21T07:19:48.940Z,70.00
2023-04-21T07:22:16.769Z,69.40
2023-04-21T07:24:44.601Z,66.70
2023-04-21T07:27:12.573Z,62.80
2023-04-21T07:29:40.473Z,61.40
2023-04-21T07:32:08.319Z,61.20
2023-04-21T07:34:36.201Z,58.00
2023-04-21T07:37:05.464Z,59.40
2023-04-21T07:39:33.370Z,61.20
2023-04-21T07:42:01.215Z,57.00
2023-04-21T07:44:32.810Z,58.10
2023-04-21T07:47:00.679Z,56.20
2023-04-21T07:49:28.603Z,51.70
2023-04-21T07:51:56.468Z,53.20
2023-04-21T07:54:25.742Z,53.10
2023-04-21T07:56:53.879Z,53.00
2023-04-21T07:59:21.890Z,55.30
2023-04-21T08:01:51.752Z,57.30
2023-04-21T08:04:19.945Z,55.70
2023-04-21T08:06:48.164Z,54.90
2023-04-21T08:09:16.094Z,59.00
2023-04-21T08:11:45.407Z,57.00
2023-04-21T08:14:13.290Z,59.50
2023-04-21T08:16:42.321Z,60.70
2023-04-21T08:19:10.997Z,60.60
2023-04-21T08:21:38.910Z,56.70
2023-04-21T08:24:07.516Z,56.60
2023-04-21T08:26:36.292Z,52.90
2023-04-21T08:29:07.472Z,54.40
2023-04-21T08:31:35.595Z,52.10
2023-04-21T08:34:03.512Z,57.60
2023-04-21T08:36:31.895Z,57.60
2023-04-21T08:39:00.019Z,54.80
2023-04-21T08:41:28.107Z,55.60
2023-04-21T08:43:55.963Z,51.40
2023-04-21T08:46:25.453Z,54.80
2023-04-21T08:48:55.077Z,53.30
2023-04-21T08:51:25.015Z,49.40
2023-04-21T08:53:52.952Z,48.00
2023-04-21T08:56:20.835Z,44.30
2023-04-21T08:58:48.696Z,47.20
2023-04-21T09:01:16.602Z,44.00
2023-04-21T09:03:46.197Z,43.30
2023-04-21T09:06:14.578Z,42.90
2023-04-21T09:08:44.694Z,42.80
2023-04-21T09:11:15.845Z,45.80
2023-04-21T09:13:44.694Z,47.10
2023-04-21T09:16:22.856Z,44.30
2023-04-21T09:18:52.444Z,44.00
2023-04-21T09:21:23.184Z,45.40
2023-04-21T09:23:52.817Z,44.80
2023-04-21T09:26:22.924Z,44.10
2023-04-21T09:28:52.337Z,46.10
2023-04-21T09:31:21.973Z,46.80
2023-04-21T09:33:58.678Z,45.60
2023-04-21T09:36:29.330Z,45.40
2023-04-21T09:39:24.340Z,45.90
2023-04-21T09:41:46.605Z,42.60
2023-04-21T09:44:14.513Z,43.30
2023-04-21T09:46:44.756Z,46.50
2023-04-21T09:49:17.354Z,44.40
2023-04-21T09:54:28.906Z,40.20
2023-04-21T09:57:01.724Z,40.60
2023-04-21T09:59:33.409Z,42.30
2023-04-21T10:02:02.525Z,39.70
2023-04-21T10:04:33.581Z,40.60
2023-04-21T10:07:02.714Z,39.30
2023-04-21T10:09:38.146Z,37.80
2023-04-21T10:12:09.193Z,39.60
2023-04-21T10:14:37.692Z,39.30
2023-04-21T10:17:07.188Z,38.50
2023-04-21T10:19:39.911Z,36.70
2023-04-21T10:22:09.610Z,37.10
2023-04-21T10:24:39.849Z,36.40
2023-04-21T10:27:11.123Z,35.20
2023-04-21T10:29:52.523Z,35.10
2023-04-21T10:32:40.005Z,32.90
2023-04-21T10:35:11.739Z,34.20
2023-04-21T10:37:41.194Z,36.80
2023-04-21T10:40:44.276Z,34.90
2023-04-21T10:43:48.887Z,35.70
2023-04-21T10:46:36.470Z,37.20
2023-04-21T10:49:08.937Z,37.20
2023-04-21T10:52:04.888Z,37.80
2023-04-21T10:54:41.717Z,38.20
2023-04-21T10:57:13.452Z,38.80
2023-04-21T10:59:41.922Z,39.30
2023-04-21T11:02:12.468Z,36.60
2023-04-21T11:04:45.297Z,39.10
2023-04-21T11:07:16.408Z,36.90
2023-04-21T11:09:45.839Z,34.20
2023-04-21T11:12:17.830Z,34.30
2023-04-21T11:14:48.006Z,35.40
2023-04-21T11:17:17.556Z,37.30
2023-04-21T11:19:47.350Z,40.20
2023-04-21T11:22:17.307Z,37.60
2023-04-21T11:24:46.342Z,37.00
2023-04-21T11:27:16.200Z,34.30
2023-04-21T11:29:45.907Z,34.90
2023-04-21T11:32:15.155Z,35.10
2023-04-21T11:34:43.278Z,35.50
2023-04-21T11:37:15.069Z,35.70
2023-04-21T11:39:43.792Z,36.30
2023-04-21T11:42:12.619Z,31.40
2023-04-21T11:44:43.213Z,31.40
2023-04-21T11:47:15.549Z,32.90
2023-04-21T11:49:48.242Z,37.10
2023-04-21T11:52:23.726Z,33.30
2023-04-21T11:54:57.823Z,32.40
2023-04-21T11:57:26.432Z,32.10
2023-04-21T11:59:58.940Z,32.10
2023-04-21T12:02:28.414Z,31.70
2023-04-21T12:05:03.969Z,34.40
2023-04-21T12:07:33.243Z,32.80
2023-04-21T12:10:02.840Z,32.80
2023-04-21T12:12:31.173Z,32.80
2023-04-21T12:15:04.415Z,36.50
2023-04-21T12:17:38.058Z,30.00
2023-04-21T12:20:07.314Z,32.40
2023-04-21T12:22:35.497Z,32.00
2023-04-21T12:25:03.431Z,33.80
2023-04-21T12:27:32.447Z,33.60
2023-04-21T12:30:02.239Z,33.00
2023-04-21T12:32:31.009Z,34.60
2023-04-21T12:35:00.553Z,31.00
2023-04-21T12:37:28.442Z,32.90
2023-04-21T12:39:57.287Z,33.20
2023-04-21T12:42:25.637Z,30.00
2023-04-21T12:44:53.502Z,30.50
2023-04-21T12:47:22.770Z,31.20
2023-04-21T12:49:50.647Z,30.80
2023-04-21T12:52:18.515Z,30.00
2023-04-21T12:54:46.372Z,31.40
2023-04-21T12:57:15.582Z,31.70
2023-04-21T12:59:46.094Z,30.50
2023-04-21T13:02:14.955Z,27.70
2023-04-21T13:04:44.566Z,30.40
2023-04-21T13:07:12.606Z,30.20
2023-04-21T13:09:40.460Z,30.00
2023-04-21T13:12:08.588Z,31.60
2023-04-21T13:14:36.439Z,30.40
2023-04-21T13:17:04.632Z,32.10
2023-04-21T13:19:32.798Z,33.00
2023-04-21T13:22:02.322Z,29.80
2023-04-21T13:24:31.379Z,28.10
2023-04-21T13:26:59.485Z,29.20
2023-04-21T13:29:30.366Z,29.10
2023-04-21T13:31:58.409Z,30.70
2023-04-21T13:34:26.298Z,30.80
2023-04-21T13:36:55.019Z,28.80
2023-04-21T13:39:24.392Z,29.50
2023-04-21T13:41:54.106Z,31.10
2023-04-21T13:44:22.561Z,31.20
2023-04-21T13:46:52.355Z,28.70
2023-04-21T13:49:20.792Z,28.80
2023-04-21T13:51:48.667Z,28.10
2023-04-21T13:54:16.585Z,29.30
2023-04-21T13:56:45.783Z,30.20
2023-04-21T13:59:14.951Z,28.00
2023-04-21T14:01:42.955Z,29.00
2023-04-21T14:04:11.050Z,29.70
2023-04-21T14:06:39.115Z,29.10
2023-04-21T14:09:07.278Z,29.50
2023-04-21T14:11:35.156Z,28.00
2023-04-21T14:16:35.251Z,28.70
2023-04-21T14:19:03.420Z,31.00
2023-04-21T14:21:31.808Z,31.10
2023-04-21T14:23:59.697Z,29.90
2023-04-21T14:26:27.710Z,28.60
2023-04-21T14:28:56.410Z,30.40
2023-04-21T14:31:25.708Z,29.00
2023-04-21T14:33:53.633Z,31.60
2023-04-21T14:36:21.715Z,29.80
2023-04-21T14:38:50.731Z,29.50
2023-04-21T14:41:18.736Z,29.30
2023-04-21T14:43:48.416Z,29.90
2023-04-21T14:46:17.720Z,29.80
2023-04-21T14:48:47.230Z,30.20
2023-04-21T14:51:15.131Z,30.20
2023-04-21T14:53:42.976Z,32.60
2023-04-21T14:56:10.900Z,29.30
2023-04-21T14:58:38.769Z,31.30
2023-04-21T15:01:06.856Z,30.70
2023-04-21T15:03:34.912Z,28.80
2023-04-21T15:06:04.350Z,29.80
2023-04-21T15:08:32.260Z,28.50
2023-04-21T15:11:00.221Z,30.40
2023-04-21T15:13:28.203Z,30.40
2023-04-21T15:15:56.125Z,31.00
2023-04-21T15:18:23.979Z,28.20
2023-04-21T15:20:51.823Z,30.10
2023-04-21T15:23:21.156Z,29.30
2023-04-21T15:25:49.078Z,30.30
2023-04-21T15:28:16.943Z,29.70
2023-04-21T15:30:44.864Z,30.00
2023-04-21T15:33:12.789Z,30.10
2023-04-21T15:35:40.680Z,30.10
2023-04-21T15:38:08.629Z,29.10
2023-04-21T15:40:49.602Z,30.10
2023-04-21T15:43:23.038Z,29.50
2023-04-21T15:45:52.314Z,30.00
2023-04-21T15:48:22.199Z,31.40
2023-04-21T15:50:50.250Z,30.50
2023-04-21T15:53:20.061Z,28.70
2023-04-21T15:55:50.351Z,30.50
2023-04-21T15:58:18.376Z,30.70
2023-04-21T16:00:46.636Z,29.60
2023-04-21T16:03:15.101Z,29.90
2023-04-21T16:05:43.505Z,29.40
2023-04-21T16:08:11.463Z,30.00
2023-04-21T16:10:39.384Z,28.10
2023-04-21T16:13:08.779Z,28.60
2023-04-21T16:15:36.804Z,30.20
2023-04-21T16:18:06.471Z,29.90
2023-04-21T16:20:34.584Z,30.80
2023-04-21T16:23:04.633Z,30.50
2023-04-21T16:25:32.936Z,29.50
2023-04-21T16:28:00.970Z,30.40
2023-04-21T16:30:30.288Z,30.20
2023-04-21T16:32:58.189Z,31.10
2023-04-21T16:35:26.114Z,31.60
2023-04-21T16:37:53.967Z,31.40
2023-04-21T16:40:24.120Z,30.60
2023-04-21T16:42:52.441Z,30.50
2023-04-21T16:45:20.569Z,29.00
2023-04-21T16:47:50.055Z,29.00
2023-04-21T16:50:18.077Z,29.40
2023-04-21T16:52:45.922Z,30.00
2023-04-21T16:55:13.849Z,30.10
2023-04-21T16:57:41.705Z,30.90
2023-04-21T17:00:10.632Z,30.90
2023-04-21T17:02:38.622Z,30.00
2023-04-21T17:05:08.532Z,29.50
2023-04-21T17:07:36.412Z,31.00
2023-04-21T17:10:04.337Z,29.80
2023-04-21T17:12:32.296Z,30.00
2023-04-21T17:15:00.187Z,30.10
2023-04-21T17:17:28.162Z,30.40
2023-04-21T17:19:56.033Z,29.30
2023-04-21T17:22:25.450Z,29.20
2023-04-21T17:24:54.154Z,29.80
2023-04-21T17:27:22.350Z,30.80
2023-04-21T17:29:51.162Z,29.80
2023-04-21T17:32:19.610Z,30.90
2023-04-21T17:34:47.645Z,31.60
2023-04-21T17:37:15.612Z,32.10
2023-04-21T17:39:44.923Z,31.60
2023-04-21T17:42:12.850Z,31.60
2023-04-21T17:44:41.243Z,32.00
2023-04-21T17:47:09.356Z,32.20
2023-04-21T17:49:37.738Z,33.10
2023-04-21T17:52:05.927Z,32.00
2023-04-21T17:54:33.818Z,31.90
2023-04-21T17:57:03.361Z,31.30
2023-04-21T17:59:31.686Z,32.20
2023-04-21T18:02:00.460Z,32.90
2023-04-21T18:04:30.776Z,32.90
2023-04-21T18:06:58.975Z,33.50
2023-04-21T18:09:27.112Z,33.20
2023-04-21T18:11:54.944Z,33.30
2023-04-21T18:14:24.715Z,34.50
2023-04-21T18:16:52.589Z,34.00
2023-04-21T18:19:20.477Z,34.10
2023-04-21T18:21:48.760Z,35.40
2023-04-21T18:24:16.627Z,35.30
2023-04-21T18:26:44.658Z,34.20
2023-04-21T18:29:12.478Z,35.40
2023-04-21T18:31:41.714Z,39.90
2023-04-21T18:34:11.536Z,36.90
2023-04-21T18:36:39.414Z,37.90
2023-04-21T18:39:07.241Z,36.70
2023-04-21T18:41:35.413Z,36.10
2023-04-21T18:44:03.394Z,37.20
2023-04-21T18:46:31.251Z,37.70
2023-04-21T18:49:00.473Z,38.00
2023-04-21T18:51:31.027Z,39.60
2023-04-21T18:53:59.064Z,38.60
2023-04-21T18:56:27.569Z,38.50
2023-04-21T18:58:55.713Z,38.30
2023-04-21T19:01:23.680Z,42.20
2023-04-21T19:03:52.003Z,40.30
2023-04-21T19:06:21.335Z,40.60
2023-04-21T19:08:51.083Z,41.70
2023-04-21T19:11:18.962Z,42.90
2023-04-21T19:13:48.113Z,46.80
2023-04-21T19:16:16.634Z,47.00
2023-04-21T19:18:44.622Z,48.10
2023-04-21T19:21:13.934Z,48.20
2023-04-21T19:23:43.282Z,47.90
2023-04-21T19:26:11.977Z,48.50
2023-04-21T19:28:39.933Z,49.00
2023-04-21T19:31:08.100Z,48.80
2023-04-21T19:33:36.205Z,48.80
2023-04-21T19:36:04.550Z,48.60
2023-04-21T19:38:33.499Z,49.40
2023-04-21T19:41:02.744Z,50.40
2023-04-21T19:43:30.641Z,50.80
2023-04-21T19:45:59.105Z,50.50
2023-04-21T19:48:27.042Z,52.80
2023-04-21T19:50:54.942Z,54.70
2023-04-21T19:53:22.802Z,54.90
2023-04-21T19:55:52.563Z,55.70
2023-04-21T19:58:28.626Z,55.70
2023-04-21T20:01:06.536Z,55.00
2023-04-21T20:03:34.965Z,55.10
2023-04-21T20:06:04.824Z,58.00
2023-04-21T20:08:32.798Z,59.20
2023-04-21T20:11:00.896Z,60.00
2023-04-21T20:13:30.145Z,59.90
2023-04-21T20:15:58.117Z,59.70
2023-04-21T20:18:26.218Z,59.20
2023-04-21T20:20:54.139Z,60.40
2023-04-21T20:23:22.156Z,61.50
2023-04-21T20:25:50.034Z,64.50
2023-04-21T20:28:17.977Z,69.00
2023-04-21T20:30:47.192Z,69.40
2023-04-21T20:33:17.167Z,70.50
2023-04-21T20:35:45.991Z,70.20
2023-04-21T20:38:14.270Z,70.90
2023-04-21T20:40:42.218Z,70.90
2023-04-21T20:43:10.223Z,72.40
2023-04-21T20:45:38.765Z,76.10
2023-04-21T20:48:08.026Z,76.90
2023-04-21T20:50:35.910Z,75.70
2023-04-21T20:53:03.948Z,77.00
2023-04-21T20:55:31.941Z,77.30
2023-04-21T20:57:59.825Z,79.20
2023-04-21T21:00:28.057Z,80.50
2023-04-21T21:02:56.203Z,82.10
2023-04-21T21:05:25.533Z,82.30
2023-04-21T21:07:53.431Z,81.70
2023-04-21T21:10:21.285Z,81.10
2023-04-21T21:12:49.171Z,80.70
2023-04-21T21:15:17.222Z,79.60
2023-04-21T21:17:45.888Z,79.70
2023-04-21T21:20:13.833Z,78.20
2023-04-21T21:22:43.360Z,83.90
2023-04-21T21:25:11.525Z,81.10
2023-04-21T21:27:39.702Z,81.60
2023-04-21T21:30:08.936Z,81.90
2023-04-21T21:32:36.938Z,82.70
2023-04-21T21:35:05.062Z,84.50
2023-04-21T21:37:33.298Z,90.20
2023-04-21T21:40:02.498Z,90.40
2023-04-21T21:42:30.342Z,88.90
2023-04-21T21:44:58.210Z,88.00
2023-04-21T21:47:26.241Z,87.70
2023-04-21T21:49:55.854Z,86.70
2023-04-21T21:52:24.532Z,85.90
2023-04-21T21:54:52.540Z,87.50
2023-04-21T21:57:22.381Z,87.00
2023-04-21T21:59:50.552Z,88.40
2023-04-21T22:02:18.550Z,88.40
2023-04-21T22:04:46.486Z,86.00
2023-04-21T22:07:14.459Z,87.20
2023-04-21T22:09:42.297Z,88.30
2023-04-21T22:12:10.215Z,88.30
2023-04-21T22:14:39.444Z,87.90
2023-04-21T22:17:07.430Z,88.40
2023-04-21T22:19:35.514Z,88.70
2023-04-21T22:22:03.473Z,89.00
2023-04-21T22:24:31.377Z,89.00
2023-04-21T22:26:59.219Z,90.20
2023-04-21T22:29:27.032Z,90.80
2023-04-21T22:31:56.333Z,91.10
2023-04-21T22:34:24.224Z,91.10
2023-04-21T22:36:53.325Z,90.90
2023-04-21T22:39:21.252Z,90.70
2023-04-21T22:41:49.117Z,90.00
2023-04-21T22:44:17.002Z,89.30
2023-04-21T22:46:44.918Z,87.40
2023-04-21T22:49:14.264Z,88.80
2023-04-21T22:51:42.403Z,88.90
2023-04-21T22:54:10.244Z,90.80
2023-04-21T22:56:38.131Z,91.30
2023-04-21T22:59:06.473Z,92.10
2023-04-21T23:01:34.489Z,92.00
2023-04-21T23:04:03.109Z,91.80
2023-04-21T23:06:32.784Z,92.10
2023-04-21T23:09:00.637Z,92.00
2023-04-21T23:11:28.468Z,92.60
2023-04-21T23:13:56.628Z,93.00
2023-04-21T23:16:24.517Z,93.00
2023-04-21T23:18:52.388Z,91.30
2023-04-21T23:21:20.259Z,91.60
2023-04-21T23:23:49.444Z,92.30
2023-04-21T23:26:17.301Z,90.70
2023-04-21T23:28:45.161Z,92.20
2023-04-21T23:31:12.991Z,93.20
2023-04-21T23:33:40.892Z,92.90
2023-04-21T23:36:08.909Z,92.50
2023-04-21T23:38:36.773Z,92.90
2023-04-21T23:41:06.258Z,93.60
2023-04-21T23:43:34.558Z,93.80
2023-04-21T23:46:02.533Z,94.20
2023-04-21T23:48:30.791Z,93.80
2023-04-21T23:50:58.724Z,93.60
2023-04-21T23:53:26.658Z,93.90
2023-04-21T23:55:54.687Z,94.20
2023-04-21T23:58:23.874Z,94.20
